Time;durP1;ratioP1;P1;durP2;ratioP2;P2;SDS_P1;SDS_P2;PMS_P1;PMS_P2;Temp;Humidity;BMP_temperature;BMP_pressure;BME280_temperature;BME280_humidity;BME280_pressure;Samples;Min_cycle;Max_cycle;Signal;HPM_P1;HPM_P2
2022/08/29 00:02:11;;;;;;;12.95;7.70;;;;;;;25.87;50.78;94940.47;4915115;28;20875;-63
2022/08/29 00:04:37;;;;;;;10.95;7.32;;;;;;;25.96;50.83;94948.25;4904598;28;20055;-64
2022/08/29 00:07:02;;;;;;;13.18;7.32;;;;;;;25.85;50.61;94940.25;4918794;28;20043;-63
2022/08/29 00:09:28;;;;;;;10.65;7.47;;;;;;;25.91;50.77;94938.13;4916104;28;20047;-66
2022/08/29 00:11:54;;;;;;;12.88;7.88;;;;;;;25.79;50.21;94919.00;4917350;28;20411;-64
2022/08/29 00:14:19;;;;;;;10.27;7.18;;;;;;;25.50;50.86;94887.19;4920270;28;20039;-63
2022/08/29 00:16:45;;;;;;;10.63;7.32;;;;;;;25.97;50.57;94951.72;4937720;28;20168;-61
2022/08/29 00:19:10;;;;;;;12.10;7.68;;;;;;;25.79;50.76;94920.47;4916534;28;20115;-62
2022/08/29 00:21:36;;;;;;;12.25;7.65;;;;;;;25.94;50.87;94947.28;4920552;28;20040;-66
2022/08/29 00:24:02;;;;;;;11.25;7.88;;;;;;;25.93;51.16;94952.03;4901209;28;20047;-63
2022/08/29 00:26:27;;;;;;;12.45;7.68;;;;;;;25.71;50.80;94929.09;4917485;28;20042;-61
2022/08/29 00:28:53;;;;;;;11.38;7.70;;;;;;;25.59;51.06;94900.44;4918707;28;20066;-63
2022/08/29 00:31:18;;;;;;;11.25;7.05;;;;;;;25.81;50.87;94950.78;4916418;28;20483;-65
2022/08/29 00:33:44;;;;;;;9.98;7.60;;;;;;;25.69;51.31;94932.34;4920326;28;20024;-63
2022/08/29 00:36:09;;;;;;;11.65;7.65;;;;;;;25.37;51.13;94884.47;4920718;28;20050;-61
2022/08/29 00:38:35;;;;;;;12.85;7.55;;;;;;;25.88;50.98;94939.19;4919474;28;20526;-64
2022/08/29 00:41:00;;;;;;;11.48;7.32;;;;;;;25.68;51.36;94941.84;4919858;28;20051;-63
2022/08/29 00:43:32;;;;;;;9.43;7.53;;;;;;;25.76;51.10;94941.94;4922228;28;20047;-63
2022/08/29 00:46:22;;;;;;;12.05;7.28;;;;;;;25.73;51.46;94943.72;4922529;28;20035;-65
2022/08/29 00:48:49;;;;;;;;;;;;;;;25.71;51.52;94940.03;4972921;28;20230;-63
2022/08/29 00:51:16;;;;;;;13.43;8.25;;;;;;;25.75;51.29;94937.72;4905829;28;19992;-65
2022/08/29 00:53:42;;;;;;;11.55;7.15;;;;;;;25.71;51.15;94929.09;4905381;28;20044;-65
2022/08/29 00:56:08;;;;;;;10.55;7.25;;;;;;;25.79;50.88;94941.63;4903502;28;20075;-64
2022/08/29 00:58:37;;;;;;;12.77;7.93;;;;;;;25.41;50.80;94879.41;4922211;28;20486;-64
2022/08/29 01:01:03;;;;;;;10.02;7.70;;;;;;;25.75;50.83;94937.72;4925551;28;20059;-66
2022/08/29 01:03:30;;;;;;;10.35;7.18;;;;;;;25.50;50.88;94909.06;4917987;28;20048;-65
2022/08/29 01:05:56;;;;;;;12.80;7.30;;;;;;;25.00;51.08;94829.97;4900047;28;20052;-66
2022/08/29 01:08:22;;;;;;;15.55;8.50;;;;;;;25.39;51.06;94898.34;4920300;28;20127;-65
2022/08/29 01:13:35;;;;;;;11.18;7.95;;;;;;;25.47;50.99;94904.66;4911927;28;20079;-64
2022/08/29 01:16:02;;;;;;;10.35;8.00;;;;;;;25.58;51.11;94921.59;4982900;28;20024;-66
2022/08/29 01:18:29;;;;;;;10.23;7.85;;;;;;;25.41;51.48;94918.44;4929938;28;20130;-65
2022/08/29 01:21:05;;;;;;;12.45;7.78;;;;;;;25.04;51.32;94874.13;4901696;28;20043;-66
2022/08/29 01:23:34;;;;;;;9.82;7.57;;;;;;;25.62;50.99;94932.22;4904906;28;20062;-65
2022/08/29 01:26:00;;;;;;;9.63;7.43;;;;;;;25.41;51.35;94912.22;4905488;28;20063;-62
2022/08/29 01:28:31;;;;;;;13.75;7.88;;;;;;;25.11;51.22;94868.06;4909423;28;20418;-64
2022/08/29 01:30:59;;;;;;;9.98;7.45;;;;;;;25.58;51.38;94931.81;4912887;28;20027;-65
2022/08/29 01:33:31;;;;;;;10.43;7.55;;;;;;;25.44;51.75;94933.81;4910876;28;20075;-63
2022/08/29 01:35:57;;;;;;;10.00;8.10;;;;;;;25.06;51.28;94871.59;4920971;28;20131;-65
2022/08/29 01:38:28;;;;;;;10.30;7.57;;;;;;;25.52;51.42;94933.91;4920253;28;20040;-65
2022/08/29 01:40:57;;;;;;;10.50;7.47;;;;;;;25.62;51.29;94937.69;4914625;28;20566;-62
2022/08/29 01:43:23;;;;;;;9.95;6.75;;;;;;;24.02;51.53;94755.16;4918978;28;20032;-64
2022/08/29 01:45:49;;;;;;;7.95;7.18;;;;;;;25.34;51.38;94913.59;4915160;28;20035;-63
2022/08/29 01:48:15;;;;;;;13.68;8.27;;;;;;;25.44;51.67;94938.50;4917901;28;20586;-64
2022/08/29 01:50:41;;;;;;;11.85;7.65;;;;;;;25.46;51.27;94930.53;4928246;28;20533;-66
2022/08/29 01:53:06;;;;;;;12.15;8.00;;;;;;;25.44;51.50;94939.25;4915526;28;20048;-66
2022/08/29 01:55:32;;;;;;;12.88;7.82;;;;;;;24.83;51.31;94865.03;4918024;28;20499;-66
2022/08/29 01:57:57;;;;;;;11.77;8.07;;;;;;;25.29;51.71;94927.38;4909842;28;20032;-63
2022/08/29 02:00:23;;;;;;;12.35;7.95;;;;;;;25.11;51.56;94906.31;4915978;28;20047;-66
2022/08/29 02:02:48;;;;;;;9.27;7.20;;;;;;;25.21;52.27;94950.38;4912208;28;20051;-64
2022/08/29 02:05:14;;;;;;;12.55;7.70;;;;;;;25.05;52.37;94952.13;4909178;28;20059;-65
2022/08/29 02:07:39;;;;;;;13.90;8.00;;;;;;;24.63;52.19;94875.06;4915114;28;20505;-63
2022/08/29 02:10:05;;;;;;;11.15;7.47;;;;;;;24.83;51.96;94914.19;4918684;28;20031;-65
2022/08/29 02:12:31;;;;;;;11.77;8.13;;;;;;;24.85;52.19;94928.06;4916949;28;20580;-66
2022/08/29 02:14:57;;;;;;;11.45;7.85;;;;;;;24.51;52.71;94918.19;4917611;28;20044;-66
2022/08/29 02:17:23;;;;;;;10.65;7.40;;;;;;;24.74;53.20;94954.06;4912599;28;20046;-65
2022/08/29 02:19:48;;;;;;;10.88;8.20;;;;;;;24.46;53.27;94940.09;4911834;28;20376;-64
2022/08/29 02:22:14;;;;;;;10.40;7.95;;;;;;;24.52;53.38;94924.38;4914865;28;20023;-63
2022/08/29 02:24:39;;;;;;;11.13;7.68;;;;;;;24.84;53.10;94964.84;4900889;28;20024;-62
2022/08/29 02:27:05;;;;;;;15.70;8.15;;;;;;;24.45;52.64;94903.13;4916558;28;20075;-66
2022/08/29 02:29:30;;;;;;;12.25;8.45;;;;;;;24.90;52.97;94968.22;4919763;28;20572;-66
2022/08/29 02:31:56;;;;;;;10.90;8.18;;;;;;;24.76;52.70;94943.38;4916930;28;20028;-65
2022/08/29 02:34:22;;;;;;;14.63;8.52;;;;;;;24.37;52.52;94883.16;4920754;28;20107;-64
2022/08/29 02:36:47;;;;;;;17.40;8.35;;;;;;;24.84;52.85;94953.91;4905941;28;20791;-61
2022/08/29 02:39:13;;;;;;;13.80;8.63;;;;;;;24.35;52.71;94897.31;4928046;28;20133;-61
2022/08/29 02:41:38;;;;;;;9.75;7.93;;;;;;;24.31;52.35;94887.94;4923506;28;20039;-62
2022/08/29 02:44:04;;;;;;;11.57;8.95;;;;;;;24.13;52.82;94869.56;4929822;28;20071;-65
2022/08/29 02:46:29;;;;;;;11.02;7.95;;;;;;;24.18;53.11;94878.94;4921992;28;20036;-61
2022/08/29 02:48:55;;;;;;;11.68;8.50;;;;;;;24.33;53.12;94920.91;4923761;28;20031;-67
2022/08/29 02:51:26;;;;;;;13.23;8.10;;;;;;;24.52;53.19;94948.94;4922811;28;20552;-62
2022/08/29 02:53:52;;;;;;;11.50;8.23;;;;;;;24.40;52.70;94920.34;4921728;28;20044;-66
2022/08/29 02:56:18;;;;;;;12.85;8.45;;;;;;;23.80;53.25;94854.94;4901342;28;20082;-66
2022/08/29 02:58:44;;;;;;;10.27;7.78;;;;;;;24.14;54.25;94958.38;4931580;28;20040;-66
2022/08/29 03:01:10;;;;;;;12.27;8.43;;;;;;;24.30;54.24;94973.06;4907279;28;20047;-66
2022/08/29 03:03:35;;;;;;;9.95;7.70;;;;;;;24.42;54.01;94966.94;4900316;28;20020;-67
2022/08/29 03:06:01;;;;;;;12.02;8.55;;;;;;;24.46;53.83;94978.31;4895812;28;20504;-64
2022/08/29 03:08:26;;;;;;;9.75;7.90;;;;;;;24.04;53.04;94910.88;4875751;28;20515;-65
2022/08/29 03:10:52;;;;;;;11.60;7.72;;;;;;;24.25;54.01;94974.59;4903858;28;20091;-66
2022/08/29 03:13:17;;;;;;;11.55;8.57;;;;;;;24.41;53.98;94992.78;4903272;28;20518;-63
2022/08/29 03:15:43;;;;;;;12.93;7.82;;;;;;;23.95;53.93;94951.41;4902418;28;20454;-65
2022/08/29 03:18:08;;;;;;;11.18;8.07;;;;;;;24.15;53.57;94976.19;4901790;28;20673;-65
2022/08/29 03:20:35;;;;;;;10.80;8.45;;;;;;;23.94;53.46;94934.31;4903590;28;20044;-69
2022/08/29 03:23:00;;;;;;;10.50;8.15;;;;;;;24.02;54.81;94992.50;4901237;28;20688;-67
2022/08/29 03:25:26;;;;;;;11.45;8.23;;;;;;;23.81;54.47;94951.81;4901426;28;20056;-64
2022/08/29 03:27:51;;;;;;;12.93;8.07;;;;;;;23.44;54.51;94916.28;4874973;28;20091;-64
2022/08/29 03:30:17;;;;;;;11.18;7.55;;;;;;;23.61;54.23;94927.75;4893881;28;20519;-64
2022/08/29 03:32:42;;;;;;;9.52;8.10;;;;;;;23.93;53.94;94953.91;4931033;28;20050;-63
2022/08/29 03:35:08;;;;;;;13.25;8.32;;;;;;;23.92;54.12;94953.19;4909414;28;20535;-65
2022/08/29 03:37:34;;;;;;;13.63;8.02;;;;;;;24.15;54.01;94998.03;4882922;28;20068;-64
2022/08/29 03:40:00;;;;;;;9.30;8.27;;;;;;;23.94;53.42;94955.38;4895722;28;20573;-64
2022/08/29 03:42:25;;;;;;;12.32;8.23;;;;;;;23.82;53.82;94964.94;4887335;28;20045;-66
2022/08/29 03:44:51;;;;;;;10.68;8.27;;;;;;;24.13;53.83;94989.63;4899168;28;20044;-64
2022/08/29 03:47:16;;;;;;;13.23;8.27;;;;;;;23.65;53.64;94926.25;4891330;28;20045;-67
2022/08/29 03:49:42;;;;;;;12.02;8.93;;;;;;;23.90;54.39;94985.69;4898188;28;20051;-66
2022/08/29 03:52:10;;;;;;;12.43;8.07;;;;;;;23.93;53.91;94984.66;4899924;28;20153;-68
2022/08/29 03:54:36;;;;;;;12.25;8.18;;;;;;;23.64;54.76;94970.38;4903061;28;20147;-65
2022/08/29 03:57:05;;;;;;;10.85;8.45;;;;;;;23.95;54.79;95006.72;4901914;28;20040;-67
2022/08/29 03:59:32;;;;;;;11.20;7.97;;;;;;;23.67;55.07;94991.16;4941789;28;20038;-67
2022/08/29 04:01:57;;;;;;;13.20;8.68;;;;;;;23.51;55.84;94990.06;4961254;28;20043;-67
2022/08/29 04:07:08;;;;;;;11.15;8.15;;;;;;;23.36;54.44;94907.19;4928193;28;20046;-66
2022/08/29 04:09:35;;;;;;;9.88;7.95;;;;;;;24.01;53.96;95010.09;4922422;28;20032;-63
2022/08/29 04:12:00;;;;;;;12.27;8.85;;;;;;;24.11;54.50;95002.31;4918833;28;20098;-67
2022/08/29 04:14:26;;;;;;;11.63;8.60;;;;;;;23.59;54.77;94957.50;4920860;28;20048;-67
2022/08/29 04:16:51;;;;;;;11.55;8.65;;;;;;;23.52;54.52;94936.25;4908313;28;20118;-67
2022/08/29 04:19:18;;;;;;;9.73;8.15;;;;;;;23.66;54.03;94951.50;4907537;28;20067;-65
2022/08/29 04:21:44;;;;;;;12.60;8.05;;;;;;;23.74;54.41;94976.97;4910283;28;20779;-66
2022/08/29 04:24:10;;;;;;;13.05;8.98;;;;;;;23.51;56.17;95002.91;4912867;28;20040;-63
2022/08/29 04:26:36;;;;;;;9.77;8.43;;;;;;;23.37;55.58;94974.06;4908608;28;20130;-64
2022/08/29 04:29:01;;;;;;;11.30;8.30;;;;;;;23.70;55.14;94995.59;4923174;28;20135;-67
2022/08/29 04:31:27;;;;;;;11.82;8.18;;;;;;;23.89;55.16;95025.13;4924272;28;20561;-65
2022/08/29 04:33:52;;;;;;;11.65;7.75;;;;;;;23.50;55.13;95004.19;4901829;28;20139;-67
2022/08/29 04:36:18;;;;;;;11.77;8.48;;;;;;;23.81;54.91;94995.47;4910806;28;20036;-65
2022/08/29 04:38:43;;;;;;;12.18;8.43;;;;;;;24.01;55.45;95031.94;4904787;28;20656;-66
2022/08/29 04:41:13;;;;;;;10.35;8.00;;;;;;;23.68;55.53;94970.84;4907383;28;20040;-64
2022/08/29 04:43:39;;;;;;;10.93;8.27;;;;;;;24.02;55.03;95017.06;4913251;28;20047;-68
2022/08/29 04:46:05;;;;;;;10.50;7.88;;;;;;;24.08;54.96;95036.06;4907787;28;20186;-68
2022/08/29 04:48:30;;;;;;;13.00;8.13;;;;;;;23.80;55.51;94996.72;4908780;28;20036;-65
2022/08/29 04:50:57;;;;;;;10.80;8.35;;;;;;;23.75;54.91;94975.69;4908159;28;20071;-63
2022/08/29 04:53:23;;;;;;;12.60;8.27;;;;;;;24.08;55.61;95042.28;4910372;28;20037;-66
2022/08/29 04:56:15;;;;;;;12.35;8.40;;;;;;;24.17;55.54;95043.91;4895200;28;20040;-65
2022/08/29 04:58:41;;;;;;;10.45;8.00;;;;;;;23.83;55.89;95006.63;4912382;28;20047;-64
2022/08/29 05:01:07;;;;;;;12.65;7.97;;;;;;;23.85;55.45;94987.75;4914838;28;20138;-69
2022/08/29 05:03:32;;;;;;;10.27;8.13;;;;;;;23.81;55.12;94976.38;4915728;28;20388;-70
2022/08/29 05:06:00;;;;;;;12.68;8.43;;;;;;;24.30;55.24;95050.19;4924670;28;20096;-63
2022/08/29 05:08:26;;;;;;;10.00;7.60;;;;;;;24.34;55.35;95043.22;4891311;28;20041;-66
2022/08/29 05:10:52;;;;;;;11.75;8.90;;;;;;;24.59;55.38;95057.59;4868722;28;20047;-65
2022/08/29 05:13:17;;;;;;;11.38;8.95;;;;;;;24.26;54.88;95003.38;4908236;28;20036;-65
2022/08/29 05:15:44;;;;;;;11.30;9.13;;;;;;;24.71;54.74;95076.03;4992559;28;20026;-66
2022/08/29 05:18:12;;;;;;;9.75;8.57;;;;;;;24.32;55.06;94990.41;4911191;28;20036;-63
2022/08/29 05:20:41;;;;;;;13.90;8.95;;;;;;;24.78;54.57;95055.56;4885074;28;20057;-63
2022/08/29 05:23:06;;;;;;;13.05;8.85;;;;;;;25.03;54.18;95058.47;4911736;28;20044;-65
2022/08/29 05:25:33;;;;;;;13.65;9.02;;;;;;;25.16;53.50;95063.25;4937219;28;20081;-63
2022/08/29 05:27:59;;;;;;;14.98;9.23;;;;;;;24.96;54.16;95031.72;4912033;28;20626;-62
2022/08/29 05:30:24;;;;;;;14.02;9.70;;;;;;;25.10;53.43;95046.94;4908341;28;20127;-62
2022/08/29 05:32:51;;;;;;;12.13;9.38;;;;;;;25.24;53.24;95050.47;4906615;28;20043;-63
2022/08/29 05:35:16;;;;;;;13.77;9.82;;;;;;;25.37;52.80;95070.38;4911197;28;20040;-64
2022/08/29 05:37:42;;;;;;;15.50;9.65;;;;;;;25.51;52.40;95069.16;4906416;28;20515;-61
2022/08/29 05:40:08;;;;;;;18.67;9.68;;;;;;;25.52;52.14;95065.16;4912335;28;20016;-68
2022/08/29 05:42:33;;;;;;;13.52;9.57;;;;;;;25.19;51.86;95005.56;4909200;28;20020;-61
2022/08/29 05:44:59;;;;;;;12.95;9.05;;;;;;;25.39;51.69;95029.56;4923007;28;20253;-61
2022/08/29 05:47:24;;;;;;;15.40;9.95;;;;;;;25.50;51.09;95019.22;4923354;28;20059;-64
2022/08/29 05:49:50;;;;;;;13.68;8.98;;;;;;;25.84;50.94;95063.88;4917483;28;20114;-71
2022/08/29 05:52:16;;;;;;;15.40;10.52;;;;;;;25.95;50.83;95069.91;4920516;28;20027;-70
2022/08/29 05:54:42;;;;;;;12.07;9.63;;;;;;;25.99;50.20;95078.56;4928053;28;20036;-64
2022/08/29 05:57:09;;;;;;;14.48;9.55;;;;;;;26.14;50.20;95081.50;4905011;28;20054;-71
2022/08/29 05:59:35;;;;;;;14.15;10.10;;;;;;;26.07;49.70;95081.38;4922738;28;20529;-68
2022/08/29 06:02:01;;;;;;;17.83;10.30;;;;;;;26.11;49.95;95082.53;4929663;28;20040;-63
2022/08/29 06:04:26;;;;;;;16.75;10.55;;;;;;;26.25;49.60;95075.81;4931418;28;20054;-65
2022/08/29 06:06:52;;;;;;;15.38;9.70;;;;;;;26.25;48.96;95069.59;4957849;28;20149;-64
2022/08/29 06:09:17;;;;;;;16.00;10.05;;;;;;;26.37;49.54;95075.13;4921190;28;20047;-65
2022/08/29 06:11:45;;;;;;;18.10;10.18;;;;;;;26.44;48.96;95081.94;4924849;28;20123;-66
2022/08/29 06:14:12;;;;;;;14.70;9.50;;;;;;;26.23;49.21;95045.47;4989852;28;20039;-64
2022/08/29 06:16:38;;;;;;;17.25;10.13;;;;;;;26.51;49.11;95081.31;4926353;28;20150;-63
2022/08/29 06:19:04;;;;;;;14.52;9.25;;;;;;;26.54;48.87;95081.00;4938569;28;20032;-64
2022/08/29 06:21:29;;;;;;;15.15;9.40;;;;;;;26.21;48.84;95015.16;4929899;28;21238;-65
2022/08/29 06:23:55;;;;;;;14.45;8.77;;;;;;;26.63;48.42;95074.34;4942483;28;20046;-63
2022/08/29 06:26:21;;;;;;;18.67;8.65;;;;;;;26.67;48.30;95072.03;4912235;28;20039;-64
2022/08/29 06:28:47;;;;;;;13.07;8.15;;;;;;;26.88;47.97;95077.03;4966157;28;20046;-64
2022/08/29 06:31:19;;;;;;;13.48;8.45;;;;;;;26.44;47.73;95005.25;4909860;28;20424;-65
2022/08/29 06:33:45;;;;;;;12.52;7.57;;;;;;;26.94;47.71;95079.69;4927291;28;20030;-68
2022/08/29 06:36:10;;;;;;;12.55;8.10;;;;;;;26.84;47.46;95065.66;4927512;28;20044;-64
2022/08/29 06:38:36;;;;;;;16.27;8.30;;;;;;;26.88;47.47;95063.34;4910936;28;20052;-63
2022/08/29 06:41:10;;;;;;;14.45;7.75;;;;;;;26.35;47.41;94981.81;4921816;28;20048;-63
2022/08/29 06:43:35;;;;;;;18.40;8.55;;;;;;;25.98;47.47;94966.88;4898993;28;20042;-64
2022/08/29 06:46:01;;;;;;;17.90;8.50;;;;;;;26.70;46.87;95076.47;4935939;28;20038;-63
2022/08/29 06:48:26;;;;;;;14.68;8.27;;;;;;;27.07;46.51;95085.88;4936697;28;20545;-65
2022/08/29 06:50:52;;;;;;;15.40;7.75;;;;;;;27.03;45.85;95043.63;4936463;28;20040;-66
2022/08/29 06:53:18;;;;;;;13.68;7.63;;;;;;;26.26;46.03;94956.81;4931152;28;20586;-64
2022/08/29 06:55:44;;;;;;;14.05;8.65;;;;;;;27.11;46.38;95089.00;4933856;28;20048;-65
2022/08/29 06:58:10;;;;;;;12.32;7.70;;;;;;;27.35;45.92;95091.47;4935713;23;20059;-65
2022/08/29 07:00:39;;;;;;;15.82;7.90;;;;;;;27.38;46.50;95096.63;4927024;28;20356;-64
2022/08/29 07:03:04;;;;;;;12.40;7.78;;;;;;;27.29;47.22;95093.59;4927432;28;20691;-64
2022/08/29 07:05:30;;;;;;;15.68;7.90;;;;;;;27.04;46.82;95032.13;4923226;28;20054;-63
2022/08/29 07:07:55;;;;;;;12.57;7.57;;;;;;;27.44;46.89;95101.97;4923432;28;20473;-63
2022/08/29 07:10:21;;;;;;;15.27;7.65;;;;;;;26.82;46.54;95007.91;4918613;28;20031;-64
2022/08/29 07:12:46;;;;;;;15.98;7.50;;;;;;;26.79;47.09;95014.44;4948848;28;20032;-63
2022/08/29 07:15:12;;;;;;;16.77;7.20;;;;;;;27.41;47.19;95094.81;4907712;28;20051;-63
2022/08/29 07:17:37;;;;;;;18.98;7.70;;;;;;;27.30;47.07;95076.59;4922512;28;20525;-65
2022/08/29 07:20:03;;;;;;;15.30;8.20;;;;;;;27.32;48.03;95103.50;4920843;28;20039;-64
2022/08/29 07:22:29;;;;;;;17.33;7.68;;;;;;;26.86;48.02;95024.75;4917914;28;20044;-66
2022/08/29 07:24:55;;;;;;;17.42;7.15;;;;;;;27.37;47.91;95094.44;4918853;28;20155;-63
2022/08/29 07:27:21;;;;;;;19.40;7.57;;;;;;;27.36;47.82;95103.91;4916342;28;20116;-63
2022/08/29 07:29:46;;;;;;;13.68;7.95;;;;;;;27.05;47.65;95052.75;4916245;28;20040;-63
2022/08/29 07:32:12;;;;;;;13.95;7.40;;;;;;;27.29;49.23;95107.31;4916695;28;20048;-63
2022/08/29 07:34:37;;;;;;;15.00;7.57;;;;;;;27.21;48.60;95081.81;4916683;28;20127;-64
2022/08/29 07:37:03;;;;;;;13.40;7.65;;;;;;;27.11;48.33;95072.56;4921158;28;20054;-62
2022/08/29 07:39:29;;;;;;;16.02;7.78;;;;;;;27.35;48.25;95114.16;4920885;28;20047;-63
2022/08/29 07:41:54;;;;;;;14.15;7.55;;;;;;;27.41;48.39;95111.28;4902710;28;20040;-65
2022/08/29 07:44:20;;;;;;;15.75;7.97;;;;;;;26.75;48.77;95024.25;4915946;28;20040;-63
2022/08/29 07:46:45;;;;;;;14.57;8.05;;;;;;;26.83;48.67;95028.56;4911542;28;20859;-62
2022/08/29 07:49:11;;;;;;;14.73;7.68;;;;;;;27.16;48.64;95090.16;4948644;28;20048;-63
2022/08/29 07:51:37;;;;;;;15.68;7.45;;;;;;;27.38;48.69;95118.59;4939842;28;20074;-63
2022/08/29 07:54:03;;;;;;;14.45;7.80;;;;;;;27.37;48.23;95110.88;4919644;28;20098;-63
2022/08/29 07:56:31;;;;;;;18.73;7.40;;;;;;;27.38;48.73;95106.84;4936136;28;20071;-63
2022/08/29 07:58:56;;;;;;;18.13;8.38;;;;;;;27.39;49.09;95102.84;4911002;28;20040;-64
2022/08/29 08:01:22;;;;;;;15.60;7.32;;;;;;;27.30;48.76;95095.09;4915839;28;20490;-63
2022/08/29 08:03:48;;;;;;;12.90;7.18;;;;;;;26.91;48.18;95036.91;4908365;28;20028;-63
2022/08/29 08:06:14;;;;;;;13.23;7.63;;;;;;;27.34;48.50;95101.72;4912924;28;20643;-63
2022/08/29 08:08:40;;;;;;;13.32;7.72;;;;;;;26.55;48.44;94994.09;4931411;28;20040;-63
2022/08/29 08:11:06;;;;;;;11.48;7.28;;;;;;;26.83;48.78;95031.31;4907331;28;20040;-62
2022/08/29 08:13:32;;;;;;;12.85;7.05;;;;;;;26.96;49.09;95050.47;4914206;28;20106;-63
2022/08/29 08:15:58;;;;;;;12.32;7.65;;;;;;;27.15;49.17;95083.94;4913457;28;20116;-64
2022/08/29 08:18:24;;;;;;;13.93;6.93;;;;;;;27.18;49.23;95082.16;4909848;28;20033;-64
2022/08/29 08:20:50;;;;;;;15.15;6.95;;;;;;;26.94;49.00;95058.50;4914063;28;20048;-64
2022/08/29 08:23:16;;;;;;;12.35;7.15;;;;;;;27.27;49.30;95090.66;4908674;28;20086;-64
2022/08/29 08:25:42;;;;;;;13.20;7.38;;;;;;;27.08;48.97;95061.94;4912047;28;20052;-62
2022/08/29 08:28:07;;;;;;;10.88;6.75;;;;;;;27.08;48.88;95068.16;4909678;28;20036;-65
2022/08/29 08:30:33;;;;;;;11.35;6.80;;;;;;;27.26;49.00;95094.66;4920441;28;20125;-63
2022/08/29 08:32:59;;;;;;;11.13;7.28;;;;;;;26.62;49.00;94987.94;4920118;28;20074;-63
2022/08/29 08:35:24;;;;;;;11.05;6.85;;;;;;;27.16;48.96;95068.97;4923170;28;20050;-62
2022/08/29 08:37:51;;;;;;;11.15;7.10;;;;;;;27.18;48.65;95077.41;4918578;28;20058;-64
2022/08/29 08:40:20;;;;;;;10.90;6.90;;;;;;;27.20;49.16;95091.31;4918501;28;20032;-64
2022/08/29 08:42:45;;;;;;;12.13;7.40;;;;;;;27.13;49.23;95083.75;4923202;28;20147;-63
2022/08/29 08:45:17;;;;;;;10.90;7.00;;;;;;;27.13;49.22;95086.50;4916885;28;20542;-64
2022/08/29 08:47:55;;;;;;;13.32;6.70;;;;;;;26.37;49.13;94973.06;4910803;28;20032;-64
2022/08/29 08:50:40;;;;;;;10.90;7.20;;;;;;;27.22;49.47;95093.53;4925005;28;20040;-62
2022/08/29 08:53:32;;;;;;;9.77;7.20;;;;;;;27.20;49.38;95088.56;4922086;28;20079;-64
2022/08/29 08:56:00;;;;;;;14.25;6.95;;;;;;;26.90;49.03;95049.84;4919308;28;20098;-62
2022/08/29 08:58:33;;;;;;;9.13;6.55;;;;;;;26.77;48.74;95022.47;4917548;28;20106;-65
2022/08/29 09:01:21;;;;;;;12.43;7.40;;;;;;;27.19;49.13;95084.38;4923410;28;20682;-63
2022/08/29 09:03:55;;;;;;;10.40;7.10;;;;;;;27.19;49.25;95084.38;4914928;28;20048;-63
2022/08/29 09:07:04;;;;;;;12.57;7.35;;;;;;;26.95;49.07;95046.28;4914793;28;20428;-63
2022/08/29 09:09:42;;;;;;;10.48;6.88;;;;;;;27.20;49.11;95085.81;4925477;28;20043;-65
2022/08/29 09:12:35;;;;;;;10.55;6.72;;;;;;;27.20;48.89;95085.81;4916945;28;20234;-64
2022/08/29 09:15:08;;;;;;;10.02;7.20;;;;;;;27.19;48.96;95089.84;4919633;28;20040;-63
2022/08/29 09:17:41;;;;;;;12.23;7.75;;;;;;;27.18;49.27;95079.41;4959085;28;21159;-64
2022/08/29 09:20:09;;;;;;;10.55;7.38;;;;;;;27.12;49.24;95074.03;4907800;28;20028;-63
2022/08/29 09:22:35;;;;;;;12.13;7.35;;;;;;;27.12;49.10;95074.03;4919223;28;20047;-63
2022/08/29 09:25:05;;;;;;;11.98;8.07;;;;;;;27.04;49.25;95062.28;4906061;28;20059;-62
2022/08/29 09:27:32;;;;;;;11.63;7.38;;;;;;;26.73;49.37;95009.63;4903183;28;20093;-63
2022/08/29 09:30:06;;;;;;;13.35;7.53;;;;;;;26.55;49.66;94983.13;4902770;28;20082;-63
2022/08/29 09:32:32;;;;;;;11.02;7.38;;;;;;;27.11;49.86;95067.09;4917187;28;20460;-62
2022/08/29 09:34:58;;;;;;;11.20;7.63;;;;;;;26.31;50.07;94937.56;4906450;28;20537;-63
2022/08/29 09:37:32;;;;;;;10.52;7.32;;;;;;;26.33;49.38;94939.78;4921644;28;20048;-63
2022/08/29 09:40:11;;;;;;;10.23;7.32;;;;;;;26.97;50.04;95032.75;4917047;28;20028;-64
2022/08/29 09:42:41;;;;;;;11.75;7.32;;;;;;;26.89;50.07;95026.47;4917606;28;20079;-64
2022/08/29 09:45:20;;;;;;;10.32;7.57;;;;;;;27.18;50.02;95055.47;4917699;28;20056;-63
2022/08/29 09:47:46;;;;;;;12.30;7.82;;;;;;;27.19;50.17;95056.94;4913167;28;20040;-63
2022/08/29 09:50:24;;;;;;;10.65;7.90;;;;;;;27.18;49.95;95039.00;4911697;28;20036;-63
2022/08/29 09:52:51;;;;;;;11.82;7.75;;;;;;;26.84;49.38;94999.88;4949511;28;20219;-63
2022/08/29 09:55:33;;;;;;;11.48;7.28;;;;;;;27.19;49.67;95054.22;4907727;28;20028;-65
2022/08/29 09:58:05;;;;;;;12.27;7.88;;;;;;;27.04;49.63;95026.63;4902935;28;20048;-65
2022/08/29 10:00:38;;;;;;;10.27;7.45;;;;;;;26.55;49.66;94953.00;4926153;28;20171;-67
2022/08/29 10:03:05;;;;;;;12.95;7.78;;;;;;;27.18;49.95;95049.97;4942028;28;20059;-64
2022/08/29 10:05:34;;;;;;;11.00;7.63;;;;;;;27.17;49.90;95042.28;4946144;28;20044;-65
2022/08/29 10:08:00;;;;;;;10.63;7.80;;;;;;;26.77;50.38;94984.13;4919018;28;20881;-64
2022/08/29 10:10:28;;;;;;;12.13;8.13;;;;;;;27.05;50.34;95030.84;4918735;28;20078;-63
2022/08/29 10:13:00;;;;;;;10.77;7.50;;;;;;;27.09;50.34;95036.72;4918050;28;20032;-63
2022/08/29 10:15:29;;;;;;;11.05;7.70;;;;;;;26.68;49.95;94969.38;4919478;28;20036;-64
2022/08/29 10:18:27;;;;;;;9.45;6.95;;;;;;;27.12;49.65;95030.19;4887331;28;20098;-63
2022/08/29 10:21:11;;;;;;;11.35;7.15;;;;;;;26.97;50.03;95002.63;4916578;28;20043;-63
2022/08/29 10:23:48;;;;;;;11.02;7.53;;;;;;;27.13;49.80;95017.94;4903657;28;20035;-62
2022/08/29 10:26:36;;;;;;;11.57;7.90;;;;;;;27.16;50.17;95013.38;4918304;28;20047;-62
2022/08/29 10:29:39;;;;;;;10.20;7.13;;;;;;;27.17;50.35;95020.34;4918529;28;20070;-64
2022/08/29 10:32:19;;;;;;;8.90;7.45;;;;;;;27.20;49.99;95013.81;4925543;28;20040;-65
2022/08/29 10:34:47;;;;;;;11.95;7.57;;;;;;;27.17;50.21;95010.13;4922685;28;20083;-65
2022/08/29 10:37:22;;;;;;;10.27;7.90;;;;;;;27.18;50.04;95017.06;4905171;28;20024;-63
2022/08/29 10:40:01;;;;;;;10.25;6.82;;;;;;;26.86;49.91;94959.00;4950842;28;20075;-64
2022/08/29 10:42:26;;;;;;;10.27;7.50;;;;;;;27.19;49.98;94998.59;4947112;28;20090;-65
2022/08/29 10:45:15;;;;;;;12.43;8.20;;;;;;;27.16;50.32;94994.94;4913703;28;20469;-64
2022/08/29 10:47:52;;;;;;;9.48;8.30;;;;;;;27.17;49.90;94993.66;4923685;28;20801;-65
2022/08/29 10:50:28;;;;;;;10.15;7.68;;;;;;;27.17;50.26;94993.66;4901788;28;20636;-65
2022/08/29 10:53:09;;;;;;;11.48;7.85;;;;;;;27.18;50.50;95000.63;4910787;28;20124;-64
2022/08/29 10:55:52;;;;;;;10.68;7.38;;;;;;;27.18;50.62;94992.41;4919013;28;20391;-64
2022/08/29 10:58:43;;;;;;;10.23;7.82;;;;;;;27.11;50.20;94989.59;4909462;28;20048;-64
2022/08/29 11:01:28;;;;;;;11.18;7.18;;;;;;;27.19;50.02;95002.09;4931837;28;20043;-67
2022/08/29 11:03:57;;;;;;;10.57;7.72;;;;;;;27.17;50.22;95004.63;4941393;28;20099;-64
2022/08/29 11:06:29;;;;;;;9.47;7.63;;;;;;;26.98;49.74;94971.19;4908715;28;20036;-64
2022/08/29 11:09:07;;;;;;;11.10;7.70;;;;;;;27.12;50.41;94986.31;4927006;28;20047;-64
2022/08/29 11:11:33;;;;;;;13.63;8.15;;;;;;;27.18;50.32;94983.44;4923013;28;20477;-63
2022/08/29 11:14:01;;;;;;;10.48;7.85;;;;;;;27.17;50.24;94971.72;4940287;28;20047;-67
2022/08/29 11:16:41;;;;;;;11.77;7.47;;;;;;;27.18;50.30;94973.22;4922540;28;20122;-65
2022/08/29 11:19:09;;;;;;;9.63;7.50;;;;;;;27.18;50.58;94967.72;4930943;28;20012;-64
2022/08/29 11:21:41;;;;;;;12.02;7.68;;;;;;;27.19;50.69;94957.47;4908657;28;20028;-65
2022/08/29 11:24:08;;;;;;;10.88;7.60;;;;;;;27.21;50.26;94954.97;4915253;28;20068;-66
2022/08/29 11:26:58;;;;;;;12.38;7.78;;;;;;;27.22;50.69;94957.16;4910354;28;20123;-64
2022/08/29 11:29:42;;;;;;;;;;;;;;;27.22;50.17;94948.94;4935808;28;20119;-63
2022/08/29 11:32:18;;;;;;;10.70;7.53;;;;;;;27.26;49.79;94949.31;4917281;28;19922;-66
2022/08/29 11:35:02;;;;;;;10.23;7.47;;;;;;;27.28;50.23;94949.53;4914409;28;20036;-65
2022/08/29 11:37:52;;;;;;;9.02;7.75;;;;;;;27.27;50.03;94937.09;4916053;28;20054;-64
2022/08/29 11:40:48;;;;;;;9.30;7.47;;;;;;;27.25;49.75;94937.63;4915687;28;20031;-65